^^
Saratoga-Weather Station Historical Data
Daily Summary for May 08, 2021 Units:  English    Metric   Both
Daily Weekly Monthly Yearly Custom
  High: Low: Average:
Temperature: 68.2 °F 36.1 °F 52.2 °F
Dew Point: 55.2 °F 33.1 °F 43.3 °F
Humidity: 93% 56% 74%
Wind Speed: 16mph 0mph 1.2mph
Wind Gust: 16mph - -
Wind- - ESE
Pressure: 30.1 in 29.8 in -
Precipitation: 0 in    
Historical Graphs
 
 
Tabular Data for May 08, 2021
Time Temperature Dew Point Pressure Wind Wind Speed Wind Gust Humidity Rainfall Rate (Hourly) solar
00:02 41.7 °F 35.8 °F 30.1 in West 0.9 mph 1 mph 79% 0 in 0 W/m2
00:07 41.5 °F 35.8 °F 30.1 in Calm     80% 0 in 0 W/m2
00:12 41.4 °F 36 °F 30.1 in Calm     81% 0 in 0 W/m2
00:17 41.2 °F 35.4 °F 30.1 in Calm     80% 0 in 0 W/m2
00:22 40.8 °F 35.1 °F 30.1 in Calm     80% 0 in 0 W/m2
00:27 40.6 °F 34.9 °F 30.1 in Calm     80% 0 in 0 W/m2
00:32 40.6 °F 35.2 °F 30.1 in Calm     81% 0 in 0 W/m2
00:37 40.5 °F 35.1 °F 30.1 in Calm     81% 0 in 0 W/m2
00:42 40.3 °F 34.9 °F 30.1 in Calm     81% 0 in 0 W/m2
00:47 40.1 °F 34.7 °F 30.1 in Calm     81% 0 in 0 W/m2
00:52 39.9 °F 34.5 °F 30.1 in Calm     81% 0 in 0 W/m2
00:57 39.7 °F 34.2 °F 30.1 in Calm     80% 0 in 0 W/m2
01:02 39.7 °F 34.2 °F 30.1 in Calm     80% 0 in 0 W/m2
01:08 39.6 °F 34.2 °F 30.1 in Calm     81% 0 in 0 W/m2
01:13 39.4 °F 34.3 °F 30.1 in Calm   1 mph 82% 0 in 0 W/m2
01:18 39.4 °F 34.7 °F 30.1 in Calm     83% 0 in 0 W/m2
01:23 39.4 °F 34.7 °F 30.1 in Calm     83% 0 in 0 W/m2
01:28 39.2 °F 34.5 °F 30.1 in Calm     83% 0 in 0 W/m2
01:33 39.2 °F 34.7 °F 30.1 in Calm     84% 0 in 0 W/m2
01:38 39 °F 34.5 °F 30.1 in Calm     84% 0 in 0 W/m2
01:43 39 °F 34.5 °F 30.1 in Calm     84% 0 in 0 W/m2
01:48 38.8 °F 34.3 °F 30.1 in Calm     84% 0 in 0 W/m2
01:53 38.7 °F 34.2 °F 30.1 in Calm     84% 0 in 0 W/m2
01:58 38.7 °F 34.2 °F 30.1 in Calm     84% 0 in 0 W/m2
02:03 38.5 °F 34.3 °F 30.1 in Calm     85% 0 in 0 W/m2
02:08 38.5 °F 34.3 °F 30.1 in Calm     85% 0 in 0 W/m2
02:13 38.3 °F 34.2 °F 30.1 in Calm     85% 0 in 0 W/m2
02:18 38.5 °F 34.3 °F 30.1 in Calm     85% 0 in 0 W/m2
02:23 38.7 °F 34.5 °F 30.1 in Calm     85% 0 in 0 W/m2
02:28 38.7 °F 34.5 °F 30.1 in Calm     85% 0 in 0 W/m2
02:33 38.7 °F 34.5 °F 30.1 in Calm     85% 0 in 0 W/m2
02:38 38.7 °F 34.5 °F 30.1 in Calm     85% 0 in 0 W/m2
02:43 38.7 °F 34.9 °F 30.1 in Calm     86% 0 in 0 W/m2
02:48 38.7 °F 34.9 °F 30.1 in Calm     86% 0 in 0 W/m2
02:53 38.7 °F 34.9 °F 30.1 in Calm     86% 0 in 0 W/m2
02:58 38.7 °F 34.9 °F 30.1 in Calm     86% 0 in 0 W/m2
03:03 38.7 °F 35.1 °F 30.1 in Calm     87% 0 in 0 W/m2
03:08 38.7 °F 35.1 °F 30.1 in Calm     87% 0 in 0 W/m2
03:13 38.7 °F 35.1 °F 30.1 in Calm     87% 0 in 0 W/m2
03:18 38.7 °F 35.1 °F 30.1 in Calm     87% 0 in 0 W/m2
03:23 38.5 °F 34.9 °F 30.1 in Calm     87% 0 in 0 W/m2
03:28 38.5 °F 34.9 °F 30.1 in Calm     87% 0 in 0 W/m2
03:33 38.1 °F 34.5 °F 30.1 in Calm     87% 0 in 0 W/m2
03:38 37.9 °F 34.3 °F 30.1 in Calm     87% 0 in 0 W/m2
03:43 37.8 °F 34.2 °F 30.1 in Calm     87% 0 in 0 W/m2
03:48 37.6 °F 34 °F 30.1 in Calm     87% 0 in 0 W/m2
03:53 37.4 °F 34.2 °F 30.1 in Calm     88% 0 in 0 W/m2
03:58 37.2 °F 34 °F 30.1 in Calm     88% 0 in 0 W/m2
04:03 37 °F 33.8 °F 30.1 in Calm     88% 0 in 0 W/m2
04:08 36.9 °F 33.6 °F 30.1 in Calm     88% 0 in 0 W/m2
04:13 36.7 °F 33.4 °F 30.1 in Calm     88% 0 in 0 W/m2
04:18 36.5 °F 33.3 °F 30.1 in Calm     88% 0 in 0 W/m2
04:23 36.3 °F 33.1 °F 30.1 in Calm     88% 0 in 0 W/m2
04:28 36.3 °F 33.4 °F 30.1 in Calm     89% 0 in 0 W/m2
04:33 36.3 °F 33.6 °F 30.1 in Calm     90% 0 in 0 W/m2
04:38 36.3 °F 33.6 °F 30.1 in Calm     90% 0 in 0 W/m2
04:43 36.3 °F 33.6 °F 30.1 in Calm     90% 0 in 0 W/m2
04:48 36.1 °F 33.4 °F 30.1 in Calm     90% 0 in 0 W/m2
04:53 36.1 °F 33.4 °F 30 in Calm     90% 0 in 0 W/m2
04:58 36.1 °F 33.8 °F 30 in Calm     91% 0 in 0 W/m2
05:03 36.3 °F 34 °F 30 in Calm     91% 0 in 0 W/m2
05:08 36.5 °F 34.2 °F 30 in Calm     91% 0 in 0 W/m2
05:13 36.7 °F 34.5 °F 30 in Calm     92% 0 in 0 W/m2
05:18 36.7 °F 34.5 °F 30 in Calm     92% 0 in 0 W/m2
05:23 36.9 °F 34.7 °F 30 in Calm     92% 0 in 0 W/m2
05:28 37 °F 34.9 °F 30 in Calm     92% 0 in 0 W/m2
05:33 37 °F 34.9 °F 30 in Calm     92% 0 in 0 W/m2
05:39 37.2 °F 35.1 °F 30 in Calm     92% 0 in 0 W/m2
05:44 37.4 °F 35.2 °F 30 in Calm     92% 0 in 0 W/m2
05:49 37.6 °F 35.4 °F 30 in Calm     92% 0 in 0 W/m2
05:54 37.6 °F 35.4 °F 30 in Calm     92% 0 in 0 W/m2
05:59 37.6 °F 35.4 °F 30 in Calm     92% 0 in 5 W/m2
06:04 37.8 °F 35.6 °F 30 in Calm     92% 0 in 5 W/m2
06:09 37.8 °F 35.6 °F 30 in Calm     92% 0 in 7 W/m2
06:14 37.9 °F 35.8 °F 30 in Calm     92% 0 in 11 W/m2
06:19 37.9 °F 35.8 °F 30 in Calm     92% 0 in 14 W/m2
06:24 38.1 °F 36 °F 30 in Calm     92% 0 in 21 W/m2
06:29 38.1 °F 36 °F 30 in Calm     92% 0 in 28 W/m2
06:34 38.3 °F 36.1 °F 30 in Calm     92% 0 in 30 W/m2
06:39 38.5 °F 36.3 °F 30 in Calm     92% 0 in 37 W/m2
06:44 38.7 °F 36.9 °F 30 in Calm     93% 0 in 39 W/m2
06:49 38.8 °F 36.7 °F 30 in Calm     92% 0 in 42 W/m2
06:54 38.8 °F 36.7 °F 30 in West 0.9 mph 1 mph 92% 0 in 40 W/m2
06:59 39 °F 36.7 °F 30 in Calm     91% 0 in 46 W/m2
07:04 39.2 °F 36.9 °F 30 in Calm   1 mph 91% 0 in 49 W/m2
07:09 39.4 °F 37 °F 30 in Calm     91% 0 in 54 W/m2
07:14 39.4 °F 36.7 °F 30 in WSW 2 mph 2 mph 90% 0 in 44 W/m2
07:19 39.6 °F 36.9 °F 30 in ESE 0.9 mph 2 mph 90% 0 in 54 W/m2
07:24 39.6 °F 36.5 °F 30 in Calm   2 mph 89% 0 in 86 W/m2
07:29 39.6 °F 36.9 °F 30 in Calm   1 mph 90% 0 in 105 W/m2
07:34 39.7 °F 37 °F 30 in Calm   1 mph 90% 0 in 91 W/m2
07:39 39.9 °F 36.9 °F 30 in Calm   2 mph 89% 0 in 65 W/m2
07:44 40.1 °F 37 °F 30 in ENE 2 mph 2 mph 89% 0 in 83 W/m2
07:49 40.3 °F 37.2 °F 30 in Calm   1 mph 89% 0 in 118 W/m2
07:54 40.5 °F 37.4 °F 30 in ENE 0.9 mph 1 mph 89% 0 in 125 W/m2
07:59 40.5 °F 37.4 °F 30 in Calm   1 mph 89% 0 in 104 W/m2
08:04 40.6 °F 37.4 °F 30 in Calm   2 mph 88% 0 in 98 W/m2
08:09 40.8 °F 37.8 °F 30 in Calm   1 mph 89% 0 in 79 W/m2
08:14 41.4 °F 38.1 °F 30 in ENE 2 mph 3 mph 88% 0 in 90 W/m2
08:19 41.7 °F 38.5 °F 30 in ENE 0.9 mph 2 mph 88% 0 in 81 W/m2
08:24 42.1 °F 38.5 °F 30 in ENE 2 mph 2 mph 87% 0 in 69 W/m2
08:29 42.6 °F 39 °F 30 in ENE 0.9 mph 2 mph 87% 0 in 76 W/m2
08:34 43.5 °F 39.6 °F 30 in East 0.9 mph 4 mph 86% 0 in 95 W/m2
08:39 44.2 °F 39.7 °F 30 in NE 2 mph 3 mph 84% 0 in 127 W/m2
08:44 44.6 °F 39.4 °F 30 in East 2.9 mph 4 mph 82% 0 in 227 W/m2
08:49 45 °F 39.2 °F 30 in East 0.9 mph 3 mph 80% 0 in 311 W/m2
08:54 45.3 °F 39.6 °F 30 in East 2 mph 2 mph 80% 0 in 439 W/m2
08:59 45.9 °F 39.7 °F 30 in ESE 2 mph 6 mph 79% 0 in 508 W/m2
09:04 46.6 °F 40.1 °F 30 in ENE 2 mph 3 mph 78% 0 in 297 W/m2
09:09 46.8 °F 39.9 °F 30 in NE 0.9 mph 6 mph 77% 0 in 237 W/m2
09:14 46.8 °F 39.9 °F 30 in ENE 2.9 mph 5 mph 77% 0 in 211 W/m2
09:19 46.8 °F 39.6 °F 30 in NE 2.9 mph 3 mph 76% 0 in 237 W/m2
09:24 46.8 °F 39.6 °F 30 in NE 0.9 mph 4 mph 76% 0 in 200 W/m2
09:29 46.9 °F 39.7 °F 30 in ENE 2 mph 3 mph 76% 0 in 276 W/m2
09:34 47.1 °F 39.9 °F 30 in NE 0.9 mph 4 mph 76% 0 in 378 W/m2
09:39 47.7 °F 40.1 °F 30 in East 0.9 mph 4 mph 75% 0 in 306 W/m2
09:44 48 °F 40.5 °F 30 in ENE 2 mph 5 mph 75% 0 in 295 W/m2
09:49 48.4 °F 40.5 °F 30 in NE 4 mph 6 mph 74% 0 in 399 W/m2
09:54 48.7 °F 40.8 °F 30 in ENE 2 mph 3 mph 74% 0 in 332 W/m2
09:59 49.1 °F 40.1 °F 30 in SE 4 mph 4 mph 71% 0 in 260 W/m2
10:04 49.5 °F 40.5 °F 30 in ESE 0.9 mph 7 mph 71% 0 in 336 W/m2
10:09 50.2 °F 40.8 °F 30 in ENE 0.9 mph 7 mph 70% 0 in 332 W/m2
10:14 50.5 °F 40.8 °F 30 in East 4 mph 7 mph 69% 0 in 294 W/m2
10:19 50.9 °F 40.3 °F 30 in East 6 mph 6 mph 67% 0 in 410 W/m2
10:24 51.4 °F 41.2 °F 30 in NE 0.9 mph 7 mph 68% 0 in 401 W/m2
10:29 52 °F 41.4 °F 30 in Calm   5 mph 67% 0 in 411 W/m2
10:34 52.5 °F 41.9 °F 30 in ENE 2 mph 6 mph 67% 0 in 566 W/m2
10:39 53.1 °F 42.1 °F 30 in East 2 mph 4 mph 66% 0 in 564 W/m2
10:44 53.8 °F 42.3 °F 30 in Calm   4 mph 65% 0 in 494 W/m2
10:49 54.1 °F 41.4 °F 30 in ENE 2 mph 4 mph 62% 0 in 346 W/m2
10:54 54.3 °F 41.5 °F 30 in ENE 2.9 mph 6 mph 62% 0 in 306 W/m2
10:59 54.5 °F 41.7 °F 30 in East 2.9 mph 3 mph 62% 0 in 260 W/m2
11:04 54.9 °F 41.2 °F 30 in ENE 6 mph 6 mph 60% 0 in 350 W/m2
11:09 55 °F 41.4 °F 30 in ENE 4 mph 7 mph 60% 0 in 315 W/m2
11:14 55.2 °F 41.2 °F 30 in East 2 mph 4 mph 59% 0 in 301 W/m2
11:19 55.4 °F 41.4 °F 30 in East 2.9 mph 4 mph 59% 0 in 343 W/m2
11:24 55.6 °F 41.5 °F 30 in ENE 2.9 mph 6 mph 59% 0 in 336 W/m2
11:29 55.9 °F 41.9 °F 30 in Calm   8 mph 59% 0 in 353 W/m2
11:34 56.1 °F 41.9 °F 30 in NNE 4.9 mph 7 mph 59% 0 in 411 W/m2
11:39 56.5 °F 42.8 °F 30 in East 2.9 mph 4 mph 60% 0 in 325 W/m2
11:44 56.7 °F 42.4 °F 30 in ENE 2.9 mph 5 mph 59% 0 in 355 W/m2
11:49 56.7 °F 42.4 °F 30 in ENE 4.9 mph 8 mph 59% 0 in 239 W/m2
11:54 56.7 °F 42.4 °F 30 in ENE 2.9 mph 7 mph 59% 0 in 248 W/m2
11:59 56.7 °F 43 °F 30 in East 2.9 mph 7 mph 60% 0 in 265 W/m2
12:04 56.7 °F 43 °F 30 in East 2.9 mph 4 mph 60% 0 in 278 W/m2
12:09 56.7 °F 43 °F 30 in NE 2.9 mph 8 mph 60% 0 in 281 W/m2
12:14 56.8 °F 43.5 °F 30 in NE 2 mph 6 mph 61% 0 in 246 W/m2
12:19 56.8 °F 43.5 °F 30 in ESE 8.1 mph 8 mph 61% 0 in 207 W/m2
12:24 56.7 °F 43.3 °F 30 in ESE 4 mph 4 mph 61% 0 in 220 W/m2
12:29 56.7 °F 43 °F 30 in East 4.9 mph 6 mph 60% 0 in 214 W/m2
12:34 56.8 °F 43.5 °F 30 in East 4.9 mph 7 mph 61% 0 in 220 W/m2
12:39 56.8 °F 43.5 °F 30 in East 2.9 mph 5 mph 61% 0 in 230 W/m2
12:44 57 °F 43.3 °F 30 in East 0.9 mph 2 mph 60% 0 in 294 W/m2
12:49 57.4 °F 43.7 °F 30 in ENE 2.9 mph 6 mph 60% 0 in 290 W/m2
12:54 57.7 °F 43.9 °F 30 in ENE 6 mph 8 mph 60% 0 in 281 W/m2
12:59 57.7 °F 43 °F 30 in SSE 0.9 mph 4 mph 58% 0 in 301 W/m2
13:04 57.9 °F 43.7 °F 30 in NNE 2 mph 6 mph 59% 0 in 274 W/m2
13:09 58.1 °F 43.9 °F 30 in SE 0.9 mph 3 mph 59% 0 in 250 W/m2
13:14 58.5 °F 44.2 °F 30 in ESE 2.9 mph 8 mph 59% 0 in 251 W/m2
13:19 58.5 °F 44.2 °F 30 in East 8.9 mph 10 mph 59% 0 in 345 W/m2
13:24 58.6 °F 44.4 °F 30 in SSE 2.9 mph 6 mph 59% 0 in 457 W/m2
13:29 59.2 °F 44.8 °F 30 in ENE 2 mph 6 mph 59% 0 in 357 W/m2
13:34 59.5 °F 45.1 °F 30 in ESE 2.9 mph 7 mph 59% 0 in 381 W/m2
13:39 59.7 °F 45.3 °F 30 in East 2 mph 6 mph 59% 0 in 457 W/m2
13:44 60.1 °F 45.3 °F 30 in ESE 2 mph 7 mph 58% 0 in 401 W/m2
13:49 60.3 °F 45.5 °F 30 in SSE 8.1 mph 8 mph 58% 0 in 306 W/m2
13:54 60.3 °F 45.5 °F 29.9 in NNE 4 mph 8 mph 58% 0 in 345 W/m2
13:59 60.4 °F 46 °F 29.9 in ENE 2 mph 7 mph 59% 0 in 401 W/m2
14:04 60.4 °F 45.7 °F 29.9 in ENE 2 mph 6 mph 58% 0 in 304 W/m2
14:09 60.4 °F 46 °F 29.9 in ESE 2 mph 7 mph 59% 0 in 399 W/m2
14:14 61 °F 46.6 °F 29.9 in ENE 2 mph 5 mph 59% 0 in 515 W/m2
14:19 61.3 °F 46 °F 29.9 in NE 0.9 mph 3 mph 57% 0 in 350 W/m2
14:24 61.5 °F 46.6 °F 29.9 in East 2 mph 5 mph 58% 0 in 445 W/m2
14:29 61.9 °F 46.9 °F 29.9 in Calm   7 mph 58% 0 in 439 W/m2
14:34 62.2 °F 47.3 °F 29.9 in ESE 2 mph 3 mph 58% 0 in 396 W/m2
14:39 62.4 °F 47.8 °F 29.9 in NNW 2 mph 7 mph 59% 0 in 250 W/m2
14:44 62.6 °F 47.7 °F 29.9 in NNW 0.9 mph 3 mph 58% 0 in 339 W/m2
14:49 62.8 °F 47.8 °F 29.9 in East 2.9 mph 7 mph 58% 0 in 378 W/m2
14:54 63.1 °F 48.6 °F 29.9 in East 0.9 mph 6 mph 59% 0 in 461 W/m2
15:00 63.3 °F 48.4 °F 29.9 in NNW 0.9 mph 2 mph 58% 0 in 450 W/m2
15:05 63.7 °F 47.7 °F 29.9 in NE 2 mph 4 mph 56% 0 in 454 W/m2
15:10 63.9 °F 48.7 °F 29.9 in SE 2.9 mph 8 mph 58% 0 in 580 W/m2
15:15 64 °F 48.6 °F 29.9 in ENE 4 mph 12 mph 57% 0 in 332 W/m2
15:20 64 °F 48.9 °F 29.9 in East 2 mph 4 mph 58% 0 in 357 W/m2
15:25 63.9 °F 48.7 °F 29.9 in Calm   8 mph 58% 0 in 452 W/m2
15:30 63.9 °F 49.3 °F 29.9 in Calm   7 mph 59% 0 in 322 W/m2
15:35 64 °F 48.9 °F 29.9 in ENE 2 mph 7 mph 58% 0 in 309 W/m2
15:40 64.2 °F 49.1 °F 29.9 in Calm   4 mph 58% 0 in 295 W/m2
15:45 64.2 °F 49.1 °F 29.9 in ESE 4 mph 7 mph 58% 0 in 390 W/m2
15:50 64.6 °F 49.5 °F 29.9 in NE 2 mph 3 mph 58% 0 in 448 W/m2
15:55 65.1 °F 50 °F 29.9 in NNE 2.9 mph 5 mph 58% 0 in 448 W/m2
16:00 65.3 °F 50.2 °F 29.9 in NW 2.9 mph 10 mph 58% 0 in 482 W/m2
16:05 65.3 °F 50.5 °F 29.9 in NW 0.9 mph 5 mph 59% 0 in 494 W/m2
16:10 65.8 °F 50.7 °F 29.9 in NE 2.9 mph 11 mph 58% 0 in 461 W/m2
16:15 66.4 °F 51.1 °F 29.9 in North 2 mph 5 mph 58% 0 in 541 W/m2
16:20 66 °F 50.4 °F 29.9 in West 14.1 mph 14 mph 57% 0 in 336 W/m2
16:25 66 °F 51.3 °F 29.9 in East 6 mph 6 mph 59% 0 in 304 W/m2
16:30 65.8 °F 50.2 °F 29.9 in NW 16 mph 16 mph 57% 0 in 345 W/m2
16:35 65.8 °F 50.2 °F 29.9 in Calm   14 mph 57% 0 in 373 W/m2
16:40 66.2 °F 50.9 °F 29.9 in WNW 4 mph 8 mph 58% 0 in 334 W/m2
16:45 66.4 °F 50.7 °F 29.9 in WNW 4 mph 14 mph 57% 0 in 315 W/m2
16:50 66.4 °F 50.7 °F 29.9 in SSW 2 mph 5 mph 57% 0 in 338 W/m2
16:55 66.4 °F 51.1 °F 29.9 in NNE 0.9 mph 6 mph 58% 0 in 301 W/m2
17:00 66.6 °F 50.9 °F 29.9 in NW 4 mph 8 mph 57% 0 in 269 W/m2
17:05 66.6 °F 50.9 °F 29.9 in ESE 2 mph 7 mph 57% 0 in 236 W/m2
17:10 66.4 °F 50.7 °F 29.9 in WNW 2.9 mph 7 mph 57% 0 in 221 W/m2
17:15 66.4 °F 50.7 °F 29.9 in ESE 2.9 mph 4 mph 57% 0 in 241 W/m2
17:20 66.4 °F 51.1 °F 29.9 in NW 4 mph 4 mph 58% 0 in 172 W/m2
17:25 66.4 °F 51.1 °F 29.9 in NNE 4.9 mph 6 mph 58% 0 in 255 W/m2
17:30 66.4 °F 51.1 °F 29.9 in WNW 4.9 mph 8 mph 58% 0 in 301 W/m2
17:35 66.6 °F 51.8 °F 29.9 in NNE 2 mph 2 mph 59% 0 in 278 W/m2
17:40 66.7 °F 51.4 °F 29.9 in East 0.9 mph 4 mph 58% 0 in 253 W/m2
17:45 66.9 °F 51.3 °F 29.9 in SW 2 mph 3 mph 57% 0 in 183 W/m2
17:50 66.7 °F 51.4 °F 29.9 in NW 2.9 mph 6 mph 58% 0 in 148 W/m2
17:55 66.6 °F 51.8 °F 29.9 in NW 0.9 mph 1 mph 59% 0 in 135 W/m2
18:00 66.6 °F 51.8 °F 29.9 in North 0.9 mph 2 mph 59% 0 in 120 W/m2
18:05 66.6 °F 51.8 °F 29.9 in ENE 2 mph 3 mph 59% 0 in 102 W/m2
18:10 66.4 °F 51.6 °F 29.9 in Calm   1 mph 59% 0 in 86 W/m2
18:15 66.4 °F 51.6 °F 29.9 in NE 2.9 mph 3 mph 59% 0 in 95 W/m2
18:20 66.4 °F 52.2 °F 29.9 in ENE 2 mph 3 mph 60% 0 in 100 W/m2
18:25 66.2 °F 52 °F 29.8 in Calm   2 mph 60% 0 in 155 W/m2
18:30 66.4 °F 52.2 °F 29.8 in ENE 4 mph 7 mph 60% 0 in 178 W/m2
18:35 66.6 °F 51.8 °F 29.8 in North 0.9 mph 2 mph 59% 0 in 169 W/m2
18:40 66.7 °F 52.3 °F 29.8 in North 2 mph 7 mph 60% 0 in 113 W/m2
18:45 67.1 °F 52.3 °F 29.8 in NE 0.9 mph 2 mph 59% 0 in 362 W/m2
18:50 67.5 °F 52.7 °F 29.8 in NE 0.9 mph 2 mph 59% 0 in 114 W/m2
18:55 67.5 °F 52.7 °F 29.8 in West 2.9 mph 5 mph 59% 0 in 104 W/m2
19:00 67.8 °F 52.9 °F 29.8 in West 4 mph 4 mph 59% 0 in 285 W/m2
19:05 68.2 °F 52.3 °F 29.8 in NNW 2 mph 5 mph 57% 0 in 86 W/m2
19:10 68.2 °F 52.9 °F 29.8 in NNW 0.9 mph 3 mph 58% 0 in 113 W/m2
19:15 68 °F 52.2 °F 29.8 in Calm   3 mph 57% 0 in 105 W/m2
19:20 67.6 °F 52.3 °F 29.8 in NNE 0.9 mph 3 mph 58% 0 in 79 W/m2
19:25 67.5 °F 52.2 °F 29.8 in North 2 mph 5 mph 58% 0 in 111 W/m2
19:30 67.3 °F 52.5 °F 29.8 in West 0.9 mph 2 mph 59% 0 in 70 W/m2
19:35 67.3 °F 52.5 °F 29.8 in Calm   3 mph 59% 0 in 105 W/m2
19:40 67.3 °F 52.9 °F 29.8 in Calm   2 mph 60% 0 in 181 W/m2
19:45 67.6 °F 53.8 °F 29.8 in West 0.9 mph 1 mph 61% 0 in 193 W/m2
19:50 67.8 °F 52.9 °F 29.8 in WNW 0.9 mph 1 mph 59% 0 in 158 W/m2
19:55 68 °F 52.7 °F 29.8 in East 0.9 mph 2 mph 58% 0 in 148 W/m2
20:00 68 °F 53.6 °F 29.8 in Calm   1 mph 60% 0 in 84 W/m2
20:05 67.8 °F 54 °F 29.8 in Calm     61% 0 in 62 W/m2
20:10 67.6 °F 54.7 °F 29.8 in Calm     63% 0 in 51 W/m2
20:15 67.3 °F 55 °F 29.8 in Calm     65% 0 in 33 W/m2
20:20 66.9 °F 55.2 °F 29.8 in Calm     66% 0 in 32 W/m2
20:25 66.6 °F 55.2 °F 29.8 in Calm     67% 0 in 26 W/m2
20:30 66.2 °F 54.9 °F 29.8 in Calm     67% 0 in 19 W/m2
20:35 65.8 °F 55 °F 29.8 in Calm     68% 0 in 12 W/m2
20:40 65.3 °F 54.5 °F 29.8 in Calm     68% 0 in 11 W/m2
20:45 64.8 °F 54.3 °F 29.8 in Calm     69% 0 in 11 W/m2
20:50 64.2 °F 54.3 °F 29.8 in Calm     70% 0 in 9 W/m2
20:55 63.7 °F 53.8 °F 29.8 in Calm     70% 0 in 5 W/m2
21:00 63.1 °F 53.6 °F 29.8 in Calm     71% 0 in 0 W/m2
21:05 62.4 °F 53.2 °F 29.8 in Calm     72% 0 in 0 W/m2
21:10 62.1 °F 52.9 °F 29.8 in Calm     72% 0 in 0 W/m2
21:15 61.5 °F 52.7 °F 29.8 in Calm     73% 0 in 0 W/m2
21:21 60.8 °F 52.5 °F 29.8 in Calm   2 mph 74% 0 in 0 W/m2
21:26 60.3 °F 52.7 °F 29.8 in Calm   2 mph 76% 0 in 0 W/m2
21:31 59.7 °F 52.2 °F 29.8 in Calm     76% 0 in 0 W/m2
21:36 59.2 °F 52.3 °F 29.8 in Calm   1 mph 78% 0 in 0 W/m2
21:41 58.6 °F 51.8 °F 29.8 in Calm     78% 0 in 0 W/m2
21:46 58.3 °F 51.8 °F 29.8 in Calm     79% 0 in 0 W/m2
21:51 57.7 °F 51.6 °F 29.8 in Calm     80% 0 in 0 W/m2
21:56 57.6 °F 51.8 °F 29.8 in Calm     81% 0 in 0 W/m2
22:01 57 °F 51.3 °F 29.8 in Calm     81% 0 in 0 W/m2
22:06 56.7 °F 51.3 °F 29.8 in Calm     82% 0 in 0 W/m2
22:11 56.5 °F 51.4 °F 29.8 in Calm     83% 0 in 0 W/m2
22:16 56.1 °F 51.1 °F 29.8 in Calm     83% 0 in 0 W/m2
22:21 55.9 °F 51.3 °F 29.8 in Calm     84% 0 in 0 W/m2
22:26 55.8 °F 51.1 °F 29.8 in Calm     84% 0 in 0 W/m2
22:31 55.6 °F 51.1 °F 29.8 in Calm     85% 0 in 0 W/m2
22:36 55.2 °F 50.7 °F 29.8 in Calm     85% 0 in 0 W/m2
22:41 55.2 °F 51.1 °F 29.8 in Calm   1 mph 86% 0 in 0 W/m2
22:46 55 °F 50.9 °F 29.8 in Calm   1 mph 86% 0 in 0 W/m2
22:51 54.9 °F 50.7 °F 29.8 in Calm     86% 0 in 0 W/m2
22:56 54.7 °F 50.5 °F 29.8 in Calm     86% 0 in 0 W/m2
23:01 54.7 °F 50.5 °F 29.8 in Calm   1 mph 86% 0 in 0 W/m2
23:06 54.3 °F 50.5 °F 29.8 in Calm   1 mph 87% 0 in 0 W/m2
23:11 54.1 °F 50.4 °F 29.8 in East 0.9 mph 1 mph 87% 0 in 0 W/m2
23:16 53.8 °F 50 °F 29.8 in Calm   1 mph 87% 0 in 0 W/m2
23:21 53.6 °F 50.2 °F 29.8 in Calm     88% 0 in 0 W/m2
23:26 53.2 °F 49.8 °F 29.8 in Calm     88% 0 in 0 W/m2
23:31 53.2 °F 50 °F 29.8 in Calm   1 mph 89% 0 in 0 W/m2
23:36 53.1 °F 49.8 °F 29.8 in Calm     89% 0 in 0 W/m2
23:41 52.9 °F 49.6 °F 29.8 in Calm     89% 0 in 0 W/m2
23:46 52.5 °F 49.5 °F 29.8 in Calm     89% 0 in 0 W/m2
23:51 52.3 °F 49.3 °F 29.8 in Calm   1 mph 89% 0 in 0 W/m2
23:56 52.3 °F 49.5 °F 29.8 in Calm     90% 0 in 0 W/m2
Juneau County Weather
Compliments of Weather Underground - 4 mb